Time;durP1;ratioP1;P1;durP2;ratioP2;P2;SDS_P1;SDS_P2;PMS_P1;PMS_P2;Temp;Humidity;BMP_temperature;BMP_pressure;BME280_temperature;BME280_humidity;BME280_pressure;Samples;Min_cycle;Max_cycle;Signal;HPM_P1;HPM_P2
2023/02/16 00:04:27;;;;;;;12.15;9.30;;;14.60;68.20;;;;;;10474714;28;20024;-54
2023/02/16 00:09:27;;;;;;;10.88;9.75;;;14.60;68.20;;;;;;10474606;28;20029;-54
2023/02/16 00:14:28;;;;;;;12.52;10.65;;;14.50;68.10;;;;;;10473890;28;20571;-54
2023/02/16 00:19:41;;;;;;;13.40;11.05;;;14.60;68.20;;;;;;10474192;28;20020;-56
2023/02/16 00:24:42;;;;;;;10.65;8.93;;;14.50;68.20;;;;;;10491428;28;20020;-55
2023/02/16 00:29:43;;;;;;;11.48;8.98;;;14.50;68.10;;;;;;10491346;28;20104;-56
2023/02/16 00:34:43;;;;;;;11.15;9.82;;;14.60;68.20;;;;;;10490847;28;20120;-55
2023/02/16 00:39:44;;;;;;;11.73;9.48;;;14.50;68.20;;;;;;10472989;28;20052;-56
2023/02/16 00:44:52;;;;;;;14.55;9.68;;;14.50;68.10;;;;;;10471615;28;20044;-56
2023/02/16 00:49:54;;;;;;;12.05;9.75;;;14.50;68.20;;;;;;10472860;28;20456;-56
2023/02/16 00:54:56;;;;;;;12.38;10.13;;;14.50;68.10;;;;;;10472336;28;20053;-55
2023/02/16 01:00:04;;;;;;;13.65;9.70;;;14.50;68.10;;;;;;10461729;28;20012;-56
2023/02/16 01:05:06;;;;;;;11.23;9.47;;;14.50;68.10;;;;;;10443974;28;20020;-56
2023/02/16 01:15:26;;;;;;;12.07;9.98;;;14.50;68.30;;;;;;10460647;28;20040;-56
2023/02/16 01:20:27;;;;;;;13.02;9.32;;;14.50;68.20;;;;;;10471292;28;20012;-55
2023/02/16 01:25:28;;;;;;;13.65;10.13;;;14.40;68.20;;;;;;10458589;28;20039;-56
2023/02/16 01:30:29;;;;;;;10.55;8.23;;;14.40;68.10;;;;;;10469956;28;20020;-56
2023/02/16 01:35:32;;;;;;;10.55;9.20;;;14.40;68.10;;;;;;10487912;28;20037;-56
2023/02/16 01:40:33;;;;;;;12.07;9.48;;;14.40;68.10;;;;;;10470553;28;20103;-55
2023/02/16 01:45:39;;;;;;;11.15;9.15;;;14.40;68.10;;;;;;10488114;28;20111;-56
2023/02/16 01:51:01;;;;;;;13.40;9.65;;;14.40;68.20;;;;;;10488013;28;20029;-56
2023/02/16 01:56:09;;;;;;;10.77;9.25;;;14.40;68.20;;;;;;10470312;28;20070;-57
2023/02/16 02:01:36;;;;;;;11.65;9.30;;;14.30;68.10;;;;;;10470710;28;20032;-56
2023/02/16 02:06:37;;;;;;;13.00;10.98;;;14.30;68.10;;;;;;10459625;28;20036;-55
2023/02/16 02:11:45;;;;;;;12.10;10.27;;;14.30;68.20;;;;;;10468720;28;20020;-55
2023/02/16 02:17:05;;;;;;;14.00;10.30;;;14.30;68.20;;;;;;10469329;28;20415;-58
2023/02/16 02:27:45;;;;;;;11.95;9.70;;;14.30;68.20;;;;;;10486227;28;19908;-55
2023/02/16 02:33:10;;;;;;;11.80;9.75;;;14.30;68.20;;;;;;10487592;28;20060;-56
2023/02/16 02:38:37;;;;;;;12.65;9.85;;;14.30;68.10;;;;;;10486954;28;20506;-54
2023/02/16 02:44:10;;;;;;;11.80;10.00;;;14.30;68.20;;;;;;10442280;28;20013;-55
2023/02/16 02:49:11;;;;;;;11.82;9.95;;;14.30;68.20;;;;;;10465251;28;20104;-56
2023/02/16 03:05:27;;;;;;;12.32;10.15;;;14.20;68.10;;;;;;10487349;28;20070;-54
2023/02/16 03:15:49;;;;;;;12.80;9.85;;;14.20;68.20;;;;;;10471536;28;20041;-55
2023/02/16 03:31:34;;;;;;;12.20;9.98;;;14.20;68.00;;;;;;10477905;28;20049;-56
2023/02/16 03:36:42;;;;;;;14.35;10.70;;;14.20;68.00;;;;;;10493040;28;20090;-55
2023/02/16 03:41:50;;;;;;;10.45;9.02;;;14.20;68.10;;;;;;10446870;28;20016;-56
2023/02/16 03:46:51;;;;;;;12.88;9.82;;;14.30;67.20;;;;;;10475476;28;20022;-56
2023/02/16 03:51:52;;;;;;;13.20;10.13;;;14.50;66.40;;;;;;10474311;28;20036;-55
2023/02/16 03:56:52;;;;;;;11.23;8.88;;;14.80;65.50;;;;;;10443794;28;20043;-56
2023/02/16 04:01:53;;;;;;;14.35;10.63;;;15.00;64.60;;;;;;10492063;28;20064;-56
2023/02/16 04:06:54;;;;;;;11.75;8.95;;;15.30;64.00;;;;;;10452243;28;20024;-55
2023/02/16 04:17:14;;;;;;;13.65;9.35;;;15.60;62.70;;;;;;10474146;28;20036;-56
2023/02/16 04:22:15;;;;;;;11.07;9.68;;;15.90;62.10;;;;;;10472049;28;20414;-56
2023/02/16 04:27:15;;;;;;;12.40;9.02;;;16.00;61.90;;;;;;10455790;28;20208;-57
2023/02/16 04:32:16;;;;;;;11.98;9.50;;;16.10;61.60;;;;;;10471074;28;20036;-56
2023/02/16 04:37:17;;;;;;;10.90;8.63;;;16.20;61.50;;;;;;10488747;28;20033;-55
2023/02/16 04:42:17;;;;;;;11.30;8.52;;;16.30;61.20;;;;;;10470981;28;20516;-57
2023/02/16 04:47:18;;;;;;;11.32;8.70;;;16.30;61.60;;;;;;10470249;28;20021;-56
2023/02/16 04:52:19;;;;;;;10.75;9.20;;;16.40;60.90;;;;;;10467291;28;20036;-56
2023/02/16 04:57:21;;;;;;;10.07;8.52;;;16.50;60.70;;;;;;10488049;28;20037;-55
2023/02/16 05:02:22;;;;;;;11.20;8.25;;;16.50;60.70;;;;;;10469301;28;20701;-55
2023/02/16 05:07:22;;;;;;;12.65;9.63;;;16.50;60.60;;;;;;10488095;28;20044;-56
2023/02/16 05:17:42;;;;;;;9.47;7.80;;;16.60;61.00;;;;;;10485809;28;20036;-55
2023/02/16 05:22:45;;;;;;;11.10;8.38;;;16.60;60.40;;;;;;10487212;28;20028;-56
2023/02/16 05:27:45;;;;;;;10.15;8.30;;;16.70;60.30;;;;;;10481995;28;20219;-56
2023/02/16 05:32:46;;;;;;;9.73;8.43;;;16.80;60.30;;;;;;10486366;28;20044;-56
2023/02/16 05:37:47;;;;;;;9.82;8.50;;;16.80;60.20;;;;;;10470494;28;20155;-57
2023/02/16 05:42:53;;;;;;;9.48;8.45;;;16.80;60.10;;;;;;10488264;28;20140;-56
2023/02/16 05:47:53;;;;;;;10.68;8.88;;;16.80;60.00;;;;;;10485545;28;20517;-56
2023/02/16 05:52:54;;;;;;;9.82;7.88;;;16.80;60.50;;;;;;10486482;28;20150;-56
2023/02/16 05:57:55;;;;;;;12.18;10.88;;;16.90;60.40;;;;;;10485906;28;20032;-55
2023/02/16 06:02:55;;;;;;;18.30;11.57;;;16.90;60.90;;;;;;10470116;28;20483;-57
2023/02/16 06:07:56;;;;;;;17.60;11.00;;;16.90;62.00;;;;;;10487003;28;20037;-56
2023/02/16 06:12:57;;;;;;;18.00;10.90;;;17.00;62.90;;;;;;10487839;28;20451;-56
2023/02/16 06:17:57;;;;;;;17.48;10.30;;;17.10;63.10;;;;;;10487528;28;20107;-57
2023/02/16 06:22:58;;;;;;;12.25;9.73;;;17.20;63.40;;;;;;10468765;28;20112;-56
2023/02/16 06:27:59;;;;;;;14.55;10.48;;;17.20;63.40;;;;;;10487276;28;20035;-56
2023/02/16 06:33:01;;;;;;;16.48;11.25;;;17.30;63.20;;;;;;10469662;28;20147;-56
2023/02/16 06:38:02;;;;;;;17.50;11.00;;;17.20;63.90;;;;;;10451905;28;20032;-56
2023/02/16 06:43:03;;;;;;;18.80;11.45;;;17.00;64.00;;;;;;10485556;28;20027;-56
2023/02/16 06:48:04;;;;;;;18.27;11.13;;;16.90;64.20;;;;;;10466853;28;20686;-54
2023/02/16 06:53:04;;;;;;;24.38;11.73;;;16.70;64.90;;;;;;10485546;28;20024;-55
2023/02/16 06:58:06;;;;;;;25.75;11.68;;;16.60;65.50;;;;;;10470692;28;20554;-57
2023/02/16 07:03:07;;;;;;;19.17;10.13;;;16.70;65.50;;;;;;10493562;28;20016;-54
2023/02/16 07:08:07;;;;;;;22.40;9.85;;;16.70;66.10;;;;;;10476035;28;20051;-55
2023/02/16 07:13:08;;;;;;;21.63;10.60;;;16.60;65.40;;;;;;10476124;28;20048;-56
2023/02/16 07:18:09;;;;;;;16.98;11.20;;;16.60;65.30;;;;;;10493274;28;20120;-55
2023/02/16 07:23:09;;;;;;;22.02;12.07;;;16.50;64.70;;;;;;10493133;28;20031;-56
2023/02/16 07:28:10;;;;;;;16.85;11.10;;;16.50;64.30;;;;;;10474086;28;20096;-48
2023/02/16 07:33:11;;;;;;;20.33;11.10;;;16.50;64.40;;;;;;10493138;28;20079;-55
2023/02/16 07:38:12;;;;;;;19.58;10.25;;;16.30;64.60;;;;;;10480763;28;20047;-54
2023/02/16 07:43:12;;;;;;;21.50;12.60;;;16.30;64.80;;;;;;10474856;28;20444;-56
2023/02/16 07:48:14;;;;;;;19.35;11.35;;;16.20;65.00;;;;;;10491636;28;20028;-56
2023/02/16 07:53:14;;;;;;;34.38;11.45;;;16.20;64.90;;;;;;10474041;28;20043;-56
2023/02/16 07:58:26;;;;;;;19.88;11.52;;;16.30;64.50;;;;;;10469895;28;20103;-57
2023/02/16 08:03:26;;;;;;;14.57;10.80;;;16.30;64.50;;;;;;10461654;28;20059;-56
2023/02/16 08:08:27;;;;;;;15.48;10.38;;;16.20;64.50;;;;;;10454209;28;20020;-55
2023/02/16 08:13:28;;;;;;;15.30;9.70;;;16.30;64.40;;;;;;10473217;28;20028;-56
2023/02/16 08:18:29;;;;;;;16.15;11.48;;;16.30;64.00;;;;;;10488799;28;20021;-56
2023/02/16 08:23:30;;;;;;;12.75;9.48;;;16.20;64.10;;;;;;10467438;28;20036;-57
2023/02/16 08:28:31;;;;;;;16.77;10.43;;;16.20;64.10;;;;;;10464855;28;20353;-56
2023/02/16 08:33:33;;;;;;;12.95;10.02;;;16.20;64.00;;;;;;10471214;28;20048;-56
2023/02/16 08:38:34;;;;;;;13.15;9.57;;;16.30;63.90;;;;;;10465100;28;20060;-56
2023/02/16 08:43:35;;;;;;;12.15;10.57;;;16.30;63.90;;;;;;10484946;28;20476;-55
2023/02/16 08:48:37;;;;;;;17.65;10.23;;;16.30;63.70;;;;;;10488988;28;20020;-56
2023/02/16 08:53:37;;;;;;;17.23;10.07;;;16.30;63.70;;;;;;10488221;28;20495;-54
2023/02/16 08:58:38;;;;;;;14.40;9.77;;;16.20;63.70;;;;;;10469045;28;20029;-56
2023/02/16 09:03:41;;;;;;;13.00;9.65;;;16.30;63.60;;;;;;10458438;28;20839;-56
2023/02/16 09:08:43;;;;;;;14.40;10.15;;;16.20;63.70;;;;;;10470392;28;20032;-56
2023/02/16 09:13:45;;;;;;;13.80;10.35;;;16.20;63.60;;;;;;10487456;28;20753;-56
2023/02/16 09:18:46;;;;;;;15.88;9.50;;;16.30;63.50;;;;;;10486480;28;20641;-54
2023/02/16 09:23:49;;;;;;;12.48;10.07;;;16.20;64.20;;;;;;10460644;28;20025;-55
2023/02/16 09:28:50;;;;;;;13.18;10.43;;;16.10;63.80;;;;;;10482884;28;20099;-56
2023/02/16 09:34:00;;;;;;;12.75;9.98;;;16.10;63.70;;;;;;10461749;28;20135;-56
2023/02/16 09:39:01;;;;;;;14.85;10.70;;;16.20;63.50;;;;;;10470567;28;20036;-57
2023/02/16 09:45:14;;;;;;;11.43;9.45;;;16.10;63.70;;;;;;10485481;28;20099;-55
2023/02/16 09:50:26;;;;;;;15.40;9.52;;;16.10;63.60;;;;;;10391799;28;20483;-56
2023/02/16 09:55:40;;;;;;;12.40;9.05;;;16.10;63.80;;;;;;10469684;28;20513;-55
2023/02/16 10:01:20;;;;;;;12.18;9.77;;;16.20;63.50;;;;;;10486314;28;20476;-57
2023/02/16 10:06:41;;;;;;;12.40;10.20;;;16.20;63.40;;;;;;10449344;28;20875;-56
2023/02/16 10:12:06;;;;;;;13.43;10.32;;;16.10;63.50;;;;;;10468652;28;20036;-56
2023/02/16 10:17:27;;;;;;;11.90;9.23;;;16.20;63.40;;;;;;10470791;28;20036;-56
2023/02/16 10:22:35;;;;;;;14.85;10.05;;;16.10;63.50;;;;;;10471088;28;20031;-56
2023/02/16 10:27:41;;;;;;;15.73;9.73;;;16.10;63.70;;;;;;10469590;28;20063;-57
2023/02/16 10:33:15;;;;;;;13.20;10.43;;;16.20;63.40;;;;;;10470781;28;20127;-55
2023/02/16 10:38:52;;;;;;;13.88;9.48;;;16.10;63.50;;;;;;10477798;28;20025;-55
2023/02/16 10:44:17;;;;;;;11.73;9.05;;;16.00;63.60;;;;;;10454573;28;20357;-56
2023/02/16 10:49:18;;;;;;;12.32;9.15;;;16.10;63.50;;;;;;10476806;28;20024;-57
2023/02/16 10:54:30;;;;;;;12.63;10.63;;;16.10;63.50;;;;;;10474502;28;20127;-56
2023/02/16 10:59:38;;;;;;;11.43;8.85;;;16.00;63.70;;;;;;10474544;28;20009;-57
2023/02/16 11:04:47;;;;;;;11.73;9.00;;;16.10;63.40;;;;;;10474104;28;20383;-56
2023/02/16 11:09:54;;;;;;;12.70;8.73;;;16.20;63.30;;;;;;10466196;28;20029;-56
2023/02/16 11:15:12;;;;;;;10.13;8.45;;;16.10;63.30;;;;;;10473709;28;20298;-56
2023/02/16 11:20:41;;;;;;;13.57;10.15;;;16.10;63.30;;;;;;10489714;28;20392;-55
2023/02/16 11:25:55;;;;;;;12.07;9.07;;;16.20;63.10;;;;;;10458830;28;20021;-56
2023/02/16 11:36:40;;;;;;;12.23;10.40;;;16.10;63.30;;;;;;10493237;28;21000;-56
2023/02/16 11:41:55;;;;;;;11.95;9.30;;;16.20;63.40;;;;;;10436563;28;20075;-57
2023/02/16 11:46:59;;;;;;;10.48;7.75;;;16.20;63.40;;;;;;10435670;28;20037;-56
2023/02/16 11:52:16;;;;;;;11.60;8.73;;;16.20;63.80;;;;;;10436298;28;20017;-56
2023/02/16 11:57:34;;;;;;;12.55;8.82;;;16.00;63.90;;;;;;10447440;28;20480;-55
2023/02/16 12:03:20;;;;;;;12.27;9.43;;;15.90;64.00;;;;;;10420203;28;20028;-56
2023/02/16 12:08:48;;;;;;;12.75;10.52;;;16.00;63.90;;;;;;10427983;28;20052;-56
2023/02/16 12:14:40;;;;;;;11.57;9.98;;;15.90;64.00;;;;;;10435778;28;20014;-55
2023/02/16 12:19:45;;;;;;;12.65;9.43;;;15.90;63.90;;;;;;10405797;28;20668;-56
2023/02/16 12:25:11;;;;;;;13.85;9.68;;;16.00;63.40;;;;;;10431803;28;20039;-56
2023/02/16 12:30:35;;;;;;;10.38;9.27;;;16.00;63.40;;;;;;10452218;28;20021;-55
2023/02/16 12:36:06;;;;;;;15.07;10.27;;;15.90;63.90;;;;;;10432379;28;20045;-55
2023/02/16 12:41:42;;;;;;;12.02;9.63;;;15.90;63.80;;;;;;10437607;28;20017;-55
2023/02/16 12:46:46;;;;;;;14.00;10.90;;;15.90;63.90;;;;;;10427342;28;20441;-55
2023/02/16 12:51:57;;;;;;;13.07;11.15;;;15.80;64.20;;;;;;10397131;28;20485;-54
2023/02/16 12:57:14;;;;;;;13.63;9.98;;;15.70;64.40;;;;;;10410995;28;20024;-55
2023/02/16 13:02:27;;;;;;;13.70;10.43;;;15.70;64.60;;;;;;10398920;28;20029;-55
2023/02/16 13:07:48;;;;;;;16.42;11.40;;;15.80;64.20;;;;;;10411593;28;20457;-55
2023/02/16 13:13:07;;;;;;;13.23;11.02;;;15.80;64.00;;;;;;10384463;28;20037;-54
2023/02/16 13:18:16;;;;;;;12.77;10.77;;;15.70;64.50;;;;;;10398772;28;20052;-56
2023/02/16 13:24:16;;;;;;;10.93;9.55;;;15.70;65.00;;;;;;10399510;28;20472;-55
2023/02/16 13:29:59;;;;;;;12.05;9.52;;;15.60;65.40;;;;;;10408903;28;20029;-56
2023/02/16 13:35:24;;;;;;;11.27;9.32;;;15.60;65.50;;;;;;10415222;28;20087;-55
2023/02/16 13:41:14;;;;;;;10.77;9.43;;;15.50;65.60;;;;;;10408758;28;20377;-56
2023/02/16 13:46:35;;;;;;;11.40;9.18;;;15.50;65.70;;;;;;10404480;28;20104;-56
2023/02/16 13:51:44;;;;;;;12.00;10.55;;;15.50;65.80;;;;;;10381228;28;20014;-56
2023/02/16 13:56:45;;;;;;;15.50;9.73;;;15.40;65.90;;;;;;10396740;28;20703;-56
2023/02/16 14:01:49;;;;;;;13.25;10.68;;;15.40;65.40;;;;;;10408081;28;20021;-55
2023/02/16 14:07:17;;;;;;;13.10;9.85;;;15.60;65.00;;;;;;10387444;28;20459;-54
2023/02/16 14:12:38;;;;;;;13.27;8.82;;;15.70;64.80;;;;;;10407677;28;20048;-55
2023/02/16 14:17:39;;;;;;;10.82;9.38;;;15.60;65.10;;;;;;10397524;28;20018;-58
2023/02/16 14:22:56;;;;;;;12.68;9.95;;;15.60;65.10;;;;;;10397363;28;20599;-56
2023/02/16 14:28:20;;;;;;;11.10;8.93;;;15.70;64.60;;;;;;10390210;28;20022;-56
2023/02/16 14:33:49;;;;;;;10.05;9.05;;;15.70;64.50;;;;;;10397430;28;20041;-56
2023/02/16 14:38:53;;;;;;;11.40;9.63;;;15.70;64.60;;;;;;10406561;28;20021;-56
2023/02/16 14:44:03;;;;;;;11.20;8.65;;;15.70;64.40;;;;;;10383023;28;20101;-55
2023/02/16 14:49:48;;;;;;;12.23;9.20;;;15.80;64.20;;;;;;10380126;28;20390;-54
2023/02/16 14:55:13;;;;;;;9.45;8.13;;;15.80;64.20;;;;;;10365066;28;20038;-56
2023/02/16 15:00:32;;;;;;;11.38;8.70;;;15.80;64.20;;;;;;10405651;28;20600;-56
2023/02/16 15:05:35;;;;;;;10.33;8.80;;;15.90;63.90;;;;;;10399258;28;20171;-56
2023/02/16 15:10:39;;;;;;;10.93;8.70;;;15.90;63.90;;;;;;10382415;28;20024;-55
2023/02/16 15:15:54;;;;;;;9.80;8.02;;;15.90;63.70;;;;;;10395225;28;20072;-56
2023/02/16 15:20:59;;;;;;;9.25;7.75;;;16.00;63.60;;;;;;10376993;28;20084;-55
2023/02/16 15:26:03;;;;;;;8.75;7.70;;;16.00;63.50;;;;;;10390674;28;20018;-55
2023/02/16 15:31:16;;;;;;;8.88;7.97;;;15.90;63.70;;;;;;10369107;28;20021;-56
2023/02/16 15:36:21;;;;;;;9.77;7.57;;;15.90;63.90;;;;;;10395990;28;20069;-56
2023/02/16 15:41:40;;;;;;;8.68;6.78;;;15.90;64.00;;;;;;10387679;28;20017;-56
2023/02/16 15:46:43;;;;;;;11.02;7.90;;;15.90;63.80;;;;;;10364509;28;20424;-55
2023/02/16 15:51:43;;;;;;;9.43;7.90;;;15.90;63.90;;;;;;10397406;28;20465;-54
2023/02/16 15:56:53;;;;;;;8.80;7.90;;;15.90;64.10;;;;;;10382410;28;20024;-55
2023/02/16 16:02:12;;;;;;;8.30;6.97;;;15.90;64.00;;;;;;10387898;28;20079;-55
2023/02/16 16:07:18;;;;;;;7.82;6.88;;;16.00;63.70;;;;;;10395026;28;20038;-59
2023/02/16 16:12:19;;;;;;;8.40;6.40;;;15.90;63.70;;;;;;10408293;28;20460;-55
2023/02/16 16:17:29;;;;;;;12.10;8.45;;;16.00;63.70;;;;;;10392922;28;20020;-56
2023/02/16 16:22:38;;;;;;;9.13;7.40;;;16.00;63.50;;;;;;10408494;28;20018;-55
2023/02/16 16:27:46;;;;;;;10.00;8.23;;;16.00;64.20;;;;;;10387169;28;20136;-55
2023/02/16 16:33:07;;;;;;;9.15;7.22;;;16.00;63.80;;;;;;10397339;28;20092;-58
2023/02/16 16:38:32;;;;;;;7.68;6.53;;;16.00;64.30;;;;;;10394114;28;20539;-57
2023/02/16 16:43:38;;;;;;;8.65;7.00;;;16.00;64.40;;;;;;10408953;28;20057;-56
2023/02/16 16:48:47;;;;;;;8.55;7.55;;;16.10;64.50;;;;;;10411700;28;20036;-56
2023/02/16 16:53:53;;;;;;;8.68;7.78;;;15.90;65.00;;;;;;10399804;28;20607;-55
2023/02/16 16:58:56;;;;;;;8.95;8.02;;;15.90;65.00;;;;;;10399748;28;20045;-56
2023/02/16 17:03:57;;;;;;;10.15;9.02;;;16.00;64.80;;;;;;10395023;28;20116;-55
2023/02/16 17:08:58;;;;;;;15.90;10.45;;;15.90;64.90;;;;;;10404141;28;20064;-56
2023/02/16 17:14:15;;;;;;;16.35;11.07;;;15.90;65.80;;;;;;10405907;28;20908;-59
2023/02/16 17:19:19;;;;;;;17.23;10.32;;;16.00;65.30;;;;;;10405025;28;20021;-56
2023/02/16 17:24:20;;;;;;;21.38;11.48;;;16.10;65.20;;;;;;10408465;28;20026;-56
2023/02/16 17:29:22;;;;;;;24.27;11.13;;;16.20;69.40;;;;;;10418026;28;20057;-55
2023/02/16 17:34:28;;;;;;;23.95;11.57;;;16.40;70.50;;;;;;10401655;28;20071;-55
2023/02/16 17:39:29;;;;;;;21.73;11.13;;;16.50;69.70;;;;;;10386417;28;20477;-55
2023/02/16 17:44:30;;;;;;;20.13;10.10;;;16.50;69.00;;;;;;10406784;28;20029;-55
2023/02/16 17:49:30;;;;;;;23.38;11.10;;;16.50;68.80;;;;;;10396821;28;20108;-54
2023/02/16 17:54:31;;;;;;;19.60;10.13;;;16.40;68.80;;;;;;10405856;28;20124;-53
2023/02/16 17:59:32;;;;;;;26.20;10.68;;;16.30;69.10;;;;;;10402580;28;20687;-56
2023/02/16 18:04:39;;;;;;;28.75;10.93;;;16.20;69.30;;;;;;10390632;28;20075;-54
2023/02/16 18:09:40;;;;;;;19.35;9.80;;;16.20;69.00;;;;;;10387198;28;20057;-54
2023/02/16 18:14:41;;;;;;;17.70;9.23;;;16.20;69.30;;;;;;10398283;28;20531;-54
2023/02/16 18:19:42;;;;;;;19.98;10.10;;;16.10;69.20;;;;;;10390822;28;20077;-55
2023/02/16 18:24:43;;;;;;;19.92;9.77;;;16.00;68.90;;;;;;10406377;28;20029;-55
2023/02/16 18:29:44;;;;;;;34.22;10.48;;;15.90;68.80;;;;;;10402704;28;20101;-55
2023/02/16 18:34:44;;;;;;;17.23;7.90;;;15.80;69.20;;;;;;10394158;28;20695;-54
2023/02/16 18:39:45;;;;;;;17.83;9.02;;;15.80;68.80;;;;;;10389965;28;20026;-55
2023/02/16 18:44:47;;;;;;;18.58;9.75;;;15.80;68.80;;;;;;10400794;28;20097;-55
2023/02/16 18:49:49;;;;;;;15.23;8.82;;;15.70;68.70;;;;;;10392972;28;20080;-55
2023/02/16 18:54:50;;;;;;;13.63;8.85;;;15.70;68.70;;;;;;10392583;28;20452;-56
2023/02/16 18:59:50;;;;;;;16.90;9.20;;;15.70;68.70;;;;;;10398059;28;20032;-55
2023/02/16 19:04:51;;;;;;;20.20;9.60;;;15.70;68.80;;;;;;10400109;28;20432;-55
2023/02/16 19:09:52;;;;;;;13.00;8.55;;;15.60;68.70;;;;;;10381988;28;20052;-56
2023/02/16 19:14:52;;;;;;;17.25;8.52;;;15.60;68.70;;;;;;10386329;28;20555;-55
2023/02/16 19:19:53;;;;;;;13.85;8.02;;;15.70;68.60;;;;;;10399585;28;20104;-54
2023/02/16 19:24:54;;;;;;;14.10;7.00;;;15.70;68.20;;;;;;10383808;28;20021;-56
2023/02/16 19:29:54;;;;;;;10.57;7.43;;;15.80;68.00;;;;;;10400901;28;20160;-55
2023/02/16 19:34:55;;;;;;;13.32;7.65;;;15.90;67.60;;;;;;10410892;28;20141;-55
2023/02/16 19:39:56;;;;;;;9.90;6.97;;;15.90;67.40;;;;;;10404425;28;20014;-54
2023/02/16 19:44:56;;;;;;;8.73;6.43;;;15.90;67.40;;;;;;10390425;28;20152;-55
2023/02/16 19:49:57;;;;;;;12.55;6.93;;;16.00;67.50;;;;;;10384104;28;20053;-56
2023/02/16 19:54:58;;;;;;;12.57;6.93;;;16.20;67.70;;;;;;10383265;28;20029;-55
2023/02/16 19:59:58;;;;;;;8.32;6.50;;;16.30;67.70;;;;;;10402951;28;20072;-54
2023/02/16 20:04:59;;;;;;;14.00;5.97;;;16.50;66.80;;;;;;10408484;28;20088;-55
2023/02/16 20:09:59;;;;;;;10.95;6.70;;;16.50;66.30;;;;;;10400946;28;20424;-55
2023/02/16 20:15:00;;;;;;;12.98;6.47;;;16.40;66.70;;;;;;10396307;28;20064;-54
2023/02/16 20:20:01;;;;;;;10.75;6.63;;;16.30;67.20;;;;;;10397176;28;20342;-54
2023/02/16 20:25:02;;;;;;;12.60;7.97;;;16.10;67.40;;;;;;10391141;28;20473;-54
2023/02/16 20:30:06;;;;;;;9.02;6.75;;;16.00;67.70;;;;;;10390595;28;20026;-55
2023/02/16 20:35:07;;;;;;;9.15;6.80;;;15.90;67.90;;;;;;10391287;28;20034;-54
2023/02/16 20:40:08;;;;;;;10.20;6.65;;;15.80;67.90;;;;;;10397725;28;20017;-53
2023/02/16 20:45:09;;;;;;;12.20;6.53;;;15.80;67.90;;;;;;10392170;28;20025;-54
2023/02/16 20:50:10;;;;;;;9.93;7.22;;;15.80;68.00;;;;;;10405454;28;20024;-53
2023/02/16 20:55:11;;;;;;;8.85;6.85;;;15.70;68.00;;;;;;10396393;28;20053;-55
2023/02/16 21:00:20;;;;;;;10.43;6.80;;;15.70;68.10;;;;;;10409282;28;20380;-55
2023/02/16 21:05:22;;;;;;;8.23;6.53;;;15.60;68.10;;;;;;10399051;28;20025;-52
2023/02/16 21:10:22;;;;;;;7.15;6.07;;;15.60;68.10;;;;;;10404489;28;20021;-54
2023/02/16 21:15:23;;;;;;;8.20;5.35;;;15.50;68.20;;;;;;10404142;28;20152;-53
2023/02/16 21:20:24;;;;;;;8.80;6.15;;;15.50;68.20;;;;;;10405605;28;20108;-54
2023/02/16 21:25:24;;;;;;;9.05;6.60;;;15.50;68.40;;;;;;10388247;28;20057;-53
2023/02/16 21:30:25;;;;;;;8.48;6.18;;;15.40;68.40;;;;;;10407335;28;20114;-54
2023/02/16 21:35:26;;;;;;;7.10;5.40;;;15.40;68.50;;;;;;10411920;28;20053;-54
2023/02/16 21:45:47;;;;;;;8.90;5.93;;;15.30;68.50;;;;;;10407981;28;20034;-53
2023/02/16 21:50:47;;;;;;;8.88;6.45;;;15.30;68.50;;;;;;10403051;28;20020;-55
2023/02/16 22:01:08;;;;;;;7.40;6.30;;;15.30;68.60;;;;;;10404489;28;20065;-54
2023/02/16 22:06:09;;;;;;;7.53;5.93;;;15.30;68.60;;;;;;10388095;28;20030;-55
2023/02/16 22:11:12;;;;;;;7.72;6.38;;;15.20;68.60;;;;;;10407209;28;20112;-53
2023/02/16 22:16:16;;;;;;;6.75;4.78;;;15.20;68.60;;;;;;10398174;28;20021;-54
2023/02/16 22:21:17;;;;;;;7.10;6.00;;;15.20;68.70;;;;;;10409459;28;20026;-55
2023/02/16 22:26:30;;;;;;;6.75;6.05;;;15.20;68.80;;;;;;10400307;28;20010;-56
2023/02/16 22:31:31;;;;;;;7.20;6.13;;;15.20;68.80;;;;;;10413527;28;20033;-53
2023/02/16 22:36:32;;;;;;;7.13;5.20;;;15.10;68.80;;;;;;10400595;28;20373;-54
2023/02/16 22:41:34;;;;;;;6.18;5.28;;;15.10;68.90;;;;;;10385390;28;20025;-55
2023/02/16 22:46:34;;;;;;;7.82;5.30;;;15.10;68.90;;;;;;10392586;28;20057;-55
2023/02/16 22:51:36;;;;;;;5.60;4.90;;;15.10;68.90;;;;;;10406490;28;20517;-54
2023/02/16 22:56:36;;;;;;;8.10;6.35;;;15.10;69.00;;;;;;10391486;28;20109;-55
2023/02/16 23:01:38;;;;;;;6.72;5.70;;;15.00;68.90;;;;;;10407787;28;20491;-54
2023/02/16 23:06:39;;;;;;;5.60;5.00;;;15.10;69.00;;;;;;10406211;28;20101;-55
2023/02/16 23:11:40;;;;;;;6.10;5.15;;;15.00;69.00;;;;;;10406486;28;20440;-53
2023/02/16 23:16:43;;;;;;;5.20;4.50;;;15.00;69.00;;;;;;10399110;28;20029;-54
2023/02/16 23:21:45;;;;;;;6.15;4.75;;;15.00;69.00;;;;;;10400634;28;20543;-54
2023/02/16 23:26:46;;;;;;;6.53;5.07;;;15.00;69.00;;;;;;10404715;28;20112;-54
2023/02/16 23:31:47;;;;;;;6.28;4.35;;;15.00;69.00;;;;;;10408024;28;20608;-54
2023/02/16 23:36:48;;;;;;;6.18;5.05;;;15.00;69.00;;;;;;10407517;28;20030;-54
2023/02/16 23:41:49;;;;;;;5.03;4.40;;;14.90;69.00;;;;;;10404078;28;20083;-55
2023/02/16 23:46:49;;;;;;;5.57;4.53;;;15.00;69.10;;;;;;10404846;28;20017;-54
2023/02/16 23:51:50;;;;;;;5.90;4.28;;;14.90;69.00;;;;;;10404848;28;20100;-54
2023/02/16 23:56:51;;;;;;;5.95;4.47;;;14.90;69.00;;;;;;10402486;28;20053;-55
